Time;durP1;ratioP1;P1;durP2;ratioP2;P2;SDS_P1;SDS_P2;PMS_P1;PMS_P2;Temp;Humidity;BMP_temperature;BMP_pressure;BME280_temperature;BME280_humidity;BME280_pressure;Samples;Min_cycle;Max_cycle;Signal;HPM_P1;HPM_P2
2023/12/08 00:01:19;;;;;;;7.13;4.30;;;6.50;99.90;;;;;;4909108;28;91305;-78
2023/12/08 00:03:45;;;;;;;6.88;4.63;;;6.40;99.90;;;;;;4927640;28;89346;-78
2023/12/08 00:06:11;;;;;;;6.95;4.05;;;6.50;99.90;;;;;;4926223;28;87722;-78
2023/12/08 00:08:37;;;;;;;8.60;4.55;;;6.50;99.90;;;;;;4927961;28;87173;-78
2023/12/08 00:11:04;;;;;;;7.80;3.90;;;6.50;99.90;;;;;;4927281;28;91719;-77
2023/12/08 00:13:29;;;;;;;7.85;3.70;;;6.50;99.90;;;;;;4926549;28;88270;-78
2023/12/08 00:15:55;;;;;;;7.53;4.10;;;6.50;99.90;;;;;;4928452;28;87584;-77
2023/12/08 00:18:21;;;;;;;8.38;3.75;;;6.50;99.90;;;;;;4928496;28;87533;-78
2023/12/08 00:20:47;;;;;;;7.47;3.53;;;6.50;99.90;;;;;;4925109;28;90920;-78
2023/12/08 00:23:13;;;;;;;7.70;3.55;;;6.40;99.90;;;;;;4925366;28;92275;-78
2023/12/08 00:25:40;;;;;;;6.00;3.50;;;6.40;99.90;;;;;;4925978;28;88772;-78
2023/12/08 00:28:06;;;;;;;5.28;3.60;;;6.40;99.90;;;;;;4925030;28;87719;-78
2023/12/08 00:30:31;;;;;;;7.40;3.78;;;6.40;99.90;;;;;;4928182;28;88127;-78
2023/12/08 00:32:57;;;;;;;5.85;3.47;;;6.40;99.90;;;;;;4909105;28;90212;-78
2023/12/08 00:35:22;;;;;;;7.00;3.58;;;6.40;99.90;;;;;;4926759;28;87892;-78
2023/12/08 00:37:48;;;;;;;6.57;3.42;;;6.40;99.90;;;;;;4925395;28;88875;-78
2023/12/08 00:40:18;;;;;;;4.88;3.22;;;6.50;99.90;;;;;;4927205;28;89027;-78
2023/12/08 00:42:44;;;;;;;5.70;3.10;;;6.50;99.90;;;;;;4925774;28;88849;-78
2023/12/08 00:45:10;;;;;;;6.32;3.17;;;6.50;99.90;;;;;;4926200;28;87680;-78
2023/12/08 00:47:37;;;;;;;5.38;3.72;;;6.50;99.90;;;;;;4927358;28;88454;-78
2023/12/08 00:50:02;;;;;;;6.40;3.60;;;6.50;99.90;;;;;;4924193;28;90518;-78
2023/12/08 00:52:28;;;;;;;6.55;3.72;;;6.50;99.90;;;;;;4926241;28;91285;-78
2023/12/08 00:54:54;;;;;;;5.70;3.22;;;6.50;99.90;;;;;;4925936;28;87784;-78
2023/12/08 00:57:19;;;;;;;6.80;3.72;;;6.50;99.90;;;;;;4925364;28;87293;-78
2023/12/08 00:59:45;;;;;;;7.47;4.00;;;6.60;99.90;;;;;;4924413;28;90627;-77
2023/12/08 01:02:11;;;;;;;8.88;3.67;;;6.60;99.90;;;;;;4927310;28;88532;-78
2023/12/08 01:04:36;;;;;;;8.43;4.18;;;6.60;99.90;;;;;;4927516;28;87589;-77
2023/12/08 01:07:02;;;;;;;7.40;4.40;;;6.60;99.90;;;;;;4925294;28;89421;-78
2023/12/08 01:09:28;;;;;;;7.20;4.18;;;6.50;99.90;;;;;;4926900;28;89241;-78
2023/12/08 01:11:53;;;;;;;7.47;4.28;;;6.50;99.90;;;;;;4923721;28;91385;-78
2023/12/08 01:14:19;;;;;;;5.50;3.60;;;6.40;99.90;;;;;;4927225;28;89555;-78
2023/12/08 01:16:45;;;;;;;10.13;4.85;;;6.40;99.90;;;;;;4926509;28;87355;-78
2023/12/08 01:19:11;;;;;;;7.75;4.05;;;6.40;99.90;;;;;;4924582;28;90661;-78
2023/12/08 01:21:38;;;;;;;8.13;4.28;;;6.40;99.90;;;;;;4926781;28;88352;-78
2023/12/08 01:24:04;;;;;;;7.85;4.05;;;6.40;99.90;;;;;;4925833;28;87472;-78
2023/12/08 01:26:30;;;;;;;7.43;4.18;;;6.30;99.90;;;;;;4916641;28;90433;-78
2023/12/08 01:28:56;;;;;;;8.32;4.30;;;6.20;99.90;;;;;;4923493;28;91705;-78
2023/12/08 01:31:22;;;;;;;12.27;4.65;;;6.30;99.90;;;;;;4924460;28;91743;-78
2023/12/08 01:33:47;;;;;;;8.30;4.75;;;6.20;99.90;;;;;;4924867;28;88283;-78
2023/12/08 01:36:14;;;;;;;8.38;4.93;;;6.30;99.90;;;;;;4924442;28;90616;-78
2023/12/08 01:38:44;;;;;;;7.10;4.63;;;6.20;99.90;;;;;;4924979;28;92746;-78
2023/12/08 01:41:15;;;;;;;10.80;4.90;;;6.30;99.90;;;;;;4925283;28;94190;-78
2023/12/08 01:43:43;;;;;;;10.48;4.97;;;6.30;99.90;;;;;;4924437;28;94212;-78
2023/12/08 01:46:12;;;;;;;9.18;5.13;;;6.30;99.90;;;;;;4925928;28;87898;-78
2023/12/08 01:48:38;;;;;;;10.30;5.32;;;6.30;99.90;;;;;;4925242;28;88369;-78
2023/12/08 01:51:04;;;;;;;8.18;4.50;;;6.20;99.90;;;;;;4926683;28;87814;-78
2023/12/08 01:53:31;;;;;;;8.43;5.00;;;6.20;99.90;;;;;;4924405;28;87638;-78
2023/12/08 01:55:57;;;;;;;8.80;4.60;;;6.10;99.90;;;;;;4925982;28;87079;-78
2023/12/08 01:58:24;;;;;;;10.57;5.20;;;6.10;99.90;;;;;;4924325;28;88652;-78
2023/12/08 02:00:51;;;;;;;10.00;5.00;;;6.10;99.90;;;;;;4925571;28;88992;-78
2023/12/08 02:03:17;;;;;;;12.38;6.30;;;6.00;99.90;;;;;;4923836;28;88711;-77
2023/12/08 02:05:50;;;;;;;10.52;5.63;;;6.10;99.90;;;;;;4927002;28;87808;-78
2023/12/08 02:08:19;;;;;;;;;;;6.00;99.90;;;;;;4927224;28;87843;-78
2023/12/08 02:10:45;;;;;;;9.95;5.78;;;6.10;99.90;;;;;;4926348;28;88853;-78
2023/12/08 02:13:11;;;;;;;9.07;5.15;;;6.10;99.90;;;;;;4925785;28;87501;-78
2023/12/08 02:15:38;;;;;;;10.63;4.90;;;6.20;99.90;;;;;;4925550;28;87717;-78
2023/12/08 02:18:05;;;;;;;9.98;5.53;;;6.20;99.90;;;;;;4925154;28;87780;-78
2023/12/08 02:20:32;;;;;;;11.73;5.55;;;6.20;99.90;;;;;;4925960;28;87050;-78
2023/12/08 02:22:57;;;;;;;12.38;5.25;;;6.30;99.90;;;;;;4926157;28;87564;-78
2023/12/08 02:25:23;;;;;;;10.23;5.60;;;6.30;99.90;;;;;;4928364;28;87795;-78
2023/12/08 02:27:49;;;;;;;10.20;5.70;;;6.30;99.90;;;;;;4927216;28;91252;-78
2023/12/08 02:30:16;;;;;;;9.73;5.18;;;6.40;99.90;;;;;;4928097;28;89366;-78
2023/12/08 02:32:48;;;;;;;11.98;6.10;;;6.40;99.90;;;;;;4929082;28;87860;-78
2023/12/08 02:35:18;;;;;;;9.55;5.85;;;6.40;99.90;;;;;;4911585;28;90707;-78
2023/12/08 02:37:47;;;;;;;10.25;5.75;;;6.40;99.90;;;;;;4910572;28;91737;-78
2023/12/08 02:40:13;;;;;;;11.90;5.75;;;6.40;99.90;;;;;;4927770;28;88332;-78
2023/12/08 02:42:39;;;;;;;13.05;6.15;;;6.40;99.90;;;;;;4926953;28;87567;-78
2023/12/08 02:45:05;;;;;;;11.20;5.70;;;6.40;99.90;;;;;;4929088;28;86904;-78
2023/12/08 02:47:31;;;;;;;11.30;6.07;;;6.50;99.90;;;;;;4928560;28;90505;-78
2023/12/08 02:49:58;;;;;;;12.95;5.80;;;6.40;99.90;;;;;;4928061;28;88433;-78
2023/12/08 02:52:24;;;;;;;12.57;6.53;;;6.40;99.90;;;;;;4927764;28;89285;-78
2023/12/08 02:54:50;;;;;;;11.43;5.95;;;6.30;99.90;;;;;;4928683;28;87134;-78
2023/12/08 02:57:15;;;;;;;16.48;6.32;;;6.30;99.90;;;;;;4927647;28;91933;-78
2023/12/08 02:59:41;;;;;;;12.23;6.35;;;6.40;99.90;;;;;;4925710;28;92101;-78
2023/12/08 03:02:06;;;;;;;12.77;6.10;;;6.40;99.90;;;;;;4929385;28;87823;-78
2023/12/08 03:04:32;;;;;;;12.40;6.30;;;6.30;99.90;;;;;;4928704;28;87583;-78
2023/12/08 03:06:58;;;;;;;11.55;6.50;;;6.30;99.90;;;;;;4928609;28;88705;-78
2023/12/08 03:09:23;;;;;;;11.40;6.22;;;6.30;99.90;;;;;;4928654;28;91274;-78
2023/12/08 03:11:49;;;;;;;13.88;6.15;;;6.30;99.90;;;;;;4926530;28;87603;-78
2023/12/08 03:14:15;;;;;;;12.70;6.47;;;6.30;99.90;;;;;;4927295;28;88990;-78
2023/12/08 03:16:40;;;;;;;15.15;7.15;;;6.30;99.90;;;;;;4925856;28;89793;-78
2023/12/08 03:19:06;;;;;;;11.90;6.88;;;6.30;99.90;;;;;;4926806;28;89206;-78
2023/12/08 03:21:32;;;;;;;12.75;7.38;;;6.30;99.90;;;;;;4929945;28;87478;-78
2023/12/08 03:23:58;;;;;;;12.90;7.03;;;6.30;99.90;;;;;;4928413;28;87632;-78
2023/12/08 03:26:24;;;;;;;15.45;7.25;;;6.30;99.90;;;;;;4928999;28;89273;-78
2023/12/08 03:28:49;;;;;;;12.65;6.85;;;6.30;99.90;;;;;;4925824;28;91374;-78
2023/12/08 03:31:23;;;;;;;13.07;6.57;;;6.30;99.90;;;;;;4928010;28;87948;-78
2023/12/08 03:33:48;;;;;;;14.50;6.93;;;6.30;99.90;;;;;;4926160;28;90192;-78
2023/12/08 03:36:14;;;;;;;13.07;6.93;;;6.30;99.90;;;;;;4926216;28;88683;-78
2023/12/08 03:38:40;;;;;;;13.57;7.15;;;6.30;99.90;;;;;;4927534;28;88305;-78
2023/12/08 03:41:05;;;;;;;12.88;7.43;;;6.20;99.90;;;;;;4926089;28;88754;-78
2023/12/08 03:43:31;;;;;;;14.00;7.47;;;6.20;99.90;;;;;;4926998;28;87566;-78
2023/12/08 03:45:57;;;;;;;16.33;7.60;;;6.10;99.90;;;;;;4927691;28;87828;-78
2023/12/08 03:48:22;;;;;;;14.55;8.75;;;6.00;99.90;;;;;;4927965;28;87931;-77
2023/12/08 03:50:48;;;;;;;13.45;6.97;;;5.90;99.90;;;;;;4927090;28;87695;-78
2023/12/08 03:53:13;;;;;;;13.77;7.75;;;5.80;99.90;;;;;;4927348;28;87531;-78
2023/12/08 03:55:39;;;;;;;14.98;8.13;;;5.70;99.90;;;;;;4927469;28;91637;-78
2023/12/08 03:58:05;;;;;;;14.98;8.07;;;5.70;99.90;;;;;;4927176;28;86795;-78
2023/12/08 04:00:30;;;;;;;15.00;8.38;;;5.70;99.90;;;;;;4928315;28;87488;-78
2023/12/08 04:02:56;;;;;;;15.18;8.50;;;5.70;99.90;;;;;;4925276;28;94870;-78
2023/12/08 04:05:22;;;;;;;17.98;8.43;;;5.70;99.90;;;;;;4928563;28;88672;-78
2023/12/08 04:07:47;;;;;;;18.65;8.82;;;5.60;99.90;;;;;;4926441;28;88747;-78
2023/12/08 04:10:13;;;;;;;17.58;9.05;;;5.60;99.90;;;;;;4927805;28;87872;-78
2023/12/08 04:12:38;;;;;;;18.80;9.18;;;5.70;99.90;;;;;;4925890;28;87906;-78
2023/12/08 04:15:05;;;;;;;20.08;9.77;;;5.70;99.90;;;;;;4927422;28;88529;-77
2023/12/08 04:17:30;;;;;;;18.48;9.85;;;5.60;99.90;;;;;;4925193;28;91975;-78
2023/12/08 04:19:56;;;;;;;21.17;10.00;;;5.60;99.90;;;;;;4927513;28;87964;-78
2023/12/08 04:22:21;;;;;;;22.45;9.82;;;5.60;99.90;;;;;;4926552;28;86831;-77
2023/12/08 04:24:47;;;;;;;20.50;11.68;;;5.60;99.90;;;;;;4926924;28;88629;-77
2023/12/08 04:27:15;;;;;;;21.02;11.20;;;5.60;99.90;;;;;;4927056;28;88256;-78
2023/12/08 04:29:41;;;;;;;22.60;10.65;;;5.60;99.90;;;;;;4925500;28;88774;-77
2023/12/08 04:32:06;;;;;;;18.13;9.57;;;5.70;99.90;;;;;;4925668;28;91811;-78
2023/12/08 04:34:32;;;;;;;20.17;10.50;;;5.70;99.90;;;;;;4927333;28;88688;-77
2023/12/08 04:36:58;;;;;;;21.90;10.68;;;5.60;99.90;;;;;;4926790;28;87909;-77
2023/12/08 04:39:24;;;;;;;21.23;10.20;;;5.70;99.90;;;;;;4926174;28;88098;-78
2023/12/08 04:41:49;;;;;;;24.85;11.68;;;5.70;99.90;;;;;;4926008;28;87366;-78
2023/12/08 04:44:15;;;;;;;20.42;11.20;;;5.70;99.90;;;;;;4926899;28;88263;-77
2023/12/08 04:46:40;;;;;;;19.35;10.18;;;5.80;99.90;;;;;;4926509;28;88398;-78
2023/12/08 04:49:06;;;;;;;18.42;9.98;;;5.90;99.90;;;;;;4926036;28;87865;-78
2023/12/08 04:51:32;;;;;;;24.55;11.02;;;5.80;99.90;;;;;;4924728;28;87491;-78
2023/12/08 04:53:57;;;;;;;19.77;9.77;;;5.90;99.90;;;;;;4924412;28;92561;-77
2023/12/08 04:56:23;;;;;;;17.92;9.50;;;5.90;99.90;;;;;;4924970;28;92599;-77
2023/12/08 04:58:49;;;;;;;19.58;10.20;;;5.90;99.90;;;;;;4926049;28;87468;-78
2023/12/08 05:01:15;;;;;;;24.45;10.73;;;5.80;99.90;;;;;;4923766;28;88234;-77
2023/12/08 05:03:41;;;;;;;19.20;10.40;;;5.80;99.90;;;;;;4926086;28;88980;-78
2023/12/08 05:06:08;;;;;;;20.42;10.50;;;5.80;99.90;;;;;;4924637;28;87579;-77
2023/12/08 05:08:34;;;;;;;19.45;9.68;;;5.80;99.90;;;;;;4924041;28;88048;-77
2023/12/08 05:10:59;;;;;;;21.67;11.07;;;5.70;99.90;;;;;;4926888;28;87349;-77
2023/12/08 05:13:25;;;;;;;19.17;10.52;;;5.80;99.90;;;;;;4924252;28;92205;-78
2023/12/08 05:15:51;;;;;;;21.00;10.68;;;5.70;99.90;;;;;;4926608;28;88354;-78
2023/12/08 05:18:17;;;;;;;21.20;11.07;;;5.70;99.90;;;;;;4923763;28;88244;-78
2023/12/08 05:20:42;;;;;;;18.80;10.13;;;5.80;99.90;;;;;;4924712;28;87700;-77
2023/12/08 05:23:08;;;;;;;20.23;10.20;;;5.80;99.90;;;;;;4925320;28;88380;-78
2023/12/08 05:25:34;;;;;;;20.02;10.57;;;5.80;99.90;;;;;;4922730;28;91403;-78
2023/12/08 05:28:00;;;;;;;17.83;9.98;;;5.80;99.90;;;;;;4924803;28;87622;-77
2023/12/08 05:30:27;;;;;;;17.77;9.55;;;5.90;99.90;;;;;;4924440;28;90834;-77
2023/12/08 05:32:53;;;;;;;23.30;11.07;;;5.90;99.90;;;;;;4925612;28;90998;-77
2023/12/08 05:35:19;;;;;;;19.60;10.50;;;5.90;99.90;;;;;;4925938;28;88197;-77
2023/12/08 05:37:45;;;;;;;20.75;11.10;;;5.90;99.90;;;;;;4925426;28;87598;-78
2023/12/08 05:40:11;;;;;;;20.73;10.55;;;6.00;99.90;;;;;;4922798;28;90728;-78
2023/12/08 05:42:37;;;;;;;19.27;10.50;;;5.90;99.90;;;;;;4922937;28;90016;-77
2023/12/08 05:45:03;;;;;;;21.13;10.50;;;5.90;99.90;;;;;;4925143;28;89018;-78
2023/12/08 05:47:29;;;;;;;17.25;10.20;;;5.90;99.90;;;;;;4924877;28;88323;-78
2023/12/08 05:49:55;;;;;;;19.73;9.98;;;5.90;99.90;;;;;;4925879;28;87812;-78
2023/12/08 05:52:20;;;;;;;20.30;10.35;;;5.90;99.90;;;;;;4924025;28;88849;-77
2023/12/08 05:54:46;;;;;;;19.48;10.35;;;6.00;99.90;;;;;;4924085;28;89089;-78
2023/12/08 05:57:12;;;;;;;21.38;10.23;;;6.00;99.90;;;;;;4924560;28;87425;-78
2023/12/08 05:59:37;;;;;;;19.33;10.27;;;6.00;99.90;;;;;;4930379;28;87047;-78
2023/12/08 06:02:03;;;;;;;18.33;9.98;;;6.10;99.90;;;;;;4928190;28;88662;-78
2023/12/08 06:04:28;;;;;;;19.63;10.95;;;6.10;99.90;;;;;;4926401;28;92047;-78
2023/12/08 06:06:54;;;;;;;18.27;10.45;;;6.10;99.90;;;;;;4927996;28;88191;-77
2023/12/08 06:09:20;;;;;;;20.55;10.45;;;6.10;99.90;;;;;;4927758;28;87737;-78
2023/12/08 06:11:45;;;;;;;26.00;11.00;;;6.10;99.90;;;;;;4927928;28;88742;-77
2023/12/08 06:14:11;;;;;;;18.67;10.20;;;6.10;99.90;;;;;;4926993;28;89912;-77
2023/12/08 06:16:36;;;;;;;19.63;11.00;;;6.20;99.90;;;;;;4929999;28;87843;-77
2023/12/08 06:19:04;;;;;;;19.88;10.80;;;6.10;99.90;;;;;;4929925;28;87960;-78
2023/12/08 06:21:30;;;;;;;21.40;10.50;;;6.10;99.90;;;;;;4925615;28;91203;-77
2023/12/08 06:23:56;;;;;;;19.65;9.57;;;6.10;99.90;;;;;;4927515;28;87880;-77
2023/12/08 06:26:22;;;;;;;18.45;10.68;;;6.10;99.90;;;;;;4928553;28;87485;-77
2023/12/08 06:28:47;;;;;;;19.63;10.30;;;6.20;99.90;;;;;;4927269;28;88088;-78
2023/12/08 06:31:13;;;;;;;17.35;9.50;;;6.20;99.90;;;;;;4928407;28;89687;-77
2023/12/08 06:33:38;;;;;;;21.25;9.75;;;6.20;99.90;;;;;;4927408;28;91011;-77
2023/12/08 06:36:05;;;;;;;20.55;10.55;;;6.20;99.90;;;;;;4928186;28;87486;-77
2023/12/08 06:38:31;;;;;;;21.02;11.07;;;6.20;99.90;;;;;;4927167;28;89172;-77
2023/12/08 06:40:56;;;;;;;20.90;10.57;;;6.30;99.90;;;;;;4928830;28;87985;-77
2023/12/08 06:43:22;;;;;;;19.98;10.48;;;6.30;99.90;;;;;;4926037;28;91283;-77
2023/12/08 06:45:48;;;;;;;20.63;10.27;;;6.30;99.90;;;;;;4927065;28;87701;-77
2023/12/08 06:48:13;;;;;;;22.90;10.23;;;6.30;99.90;;;;;;4928570;28;87030;-78
2023/12/08 06:50:39;;;;;;;18.05;9.75;;;6.40;99.90;;;;;;4928190;28;87821;-78
2023/12/08 06:53:04;;;;;;;17.85;9.77;;;6.40;99.90;;;;;;4929317;28;88156;-77
2023/12/08 06:55:30;;;;;;;21.77;10.43;;;6.40;99.90;;;;;;4927995;28;88084;-77
2023/12/08 06:57:56;;;;;;;19.02;9.95;;;6.30;99.90;;;;;;4925125;28;89792;-77
2023/12/08 07:00:22;;;;;;;24.15;10.98;;;6.20;99.90;;;;;;4919338;28;91983;-77
2023/12/08 07:02:47;;;;;;;22.17;10.48;;;6.10;99.90;;;;;;4928242;28;87721;-77
2023/12/08 07:05:19;;;;;;;21.33;10.88;;;6.00;99.90;;;;;;4929346;28;87417;-77
2023/12/08 07:07:45;;;;;;;21.45;10.57;;;5.80;99.90;;;;;;4927092;28;87668;-77
2023/12/08 07:10:10;;;;;;;20.75;10.40;;;5.80;99.90;;;;;;4928075;28;87744;-77
2023/12/08 07:12:36;;;;;;;20.30;10.73;;;5.80;99.90;;;;;;4926707;28;88619;-77
2023/12/08 07:15:02;;;;;;;20.77;9.98;;;5.70;99.90;;;;;;4926912;28;87328;-77
2023/12/08 07:17:28;;;;;;;23.67;10.35;;;5.70;99.90;;;;;;4926410;28;87096;-77
2023/12/08 07:19:53;;;;;;;25.80;12.35;;;5.70;99.90;;;;;;4924038;28;93162;-77
2023/12/08 07:22:19;;;;;;;25.98;11.35;;;5.70;99.90;;;;;;4928464;28;91907;-77
2023/12/08 07:24:45;;;;;;;27.10;10.32;;;5.70;99.90;;;;;;4927551;28;87621;-78
2023/12/08 07:27:10;;;;;;;29.00;11.50;;;5.70;99.90;;;;;;4925122;28;88262;-77
2023/12/08 07:29:36;;;;;;;24.27;10.20;;;5.70;99.90;;;;;;4927096;28;89007;-77
2023/12/08 07:32:03;;;;;;;27.42;11.07;;;5.70;99.90;;;;;;4927641;28;88559;-77
2023/12/08 07:34:29;;;;;;;27.83;10.70;;;5.70;99.90;;;;;;4926711;28;87703;-77
2023/12/08 07:36:54;;;;;;;27.95;10.48;;;5.70;99.90;;;;;;4928064;28;90775;-78
2023/12/08 07:39:20;;;;;;;20.30;9.55;;;5.80;99.90;;;;;;4927020;28;88503;-77
2023/12/08 07:41:45;;;;;;;27.70;10.32;;;5.70;99.90;;;;;;4925910;28;88618;-77
2023/12/08 07:44:11;;;;;;;29.52;10.73;;;5.80;99.90;;;;;;4927616;28;89325;-77
2023/12/08 07:46:37;;;;;;;27.52;9.95;;;5.80;99.90;;;;;;4925488;28;90654;-76
2023/12/08 07:49:03;;;;;;;29.58;11.35;;;5.80;99.90;;;;;;4926783;28;88549;-76
2023/12/08 07:51:29;;;;;;;26.60;10.38;;;5.80;99.90;;;;;;4925933;28;88299;-76
2023/12/08 07:53:54;;;;;;;29.52;10.07;;;5.90;99.90;;;;;;4926919;28;87660;-76
2023/12/08 07:56:22;;;;;;;30.38;10.48;;;5.80;99.90;;;;;;4928497;28;87889;-77
2023/12/08 07:58:48;;;;;;;31.98;11.27;;;5.90;99.90;;;;;;4926046;28;88625;-76
2023/12/08 08:01:14;;;;;;;35.65;10.93;;;5.90;99.90;;;;;;4926513;28;88517;-76
2023/12/08 08:03:39;;;;;;;27.63;10.88;;;5.90;99.90;;;;;;4924556;28;87754;-76
2023/12/08 08:06:05;;;;;;;30.52;10.30;;;5.90;99.90;;;;;;4923760;28;87944;-76
2023/12/08 08:08:32;;;;;;;31.75;10.40;;;6.00;99.90;;;;;;4926882;28;89474;-76
2023/12/08 08:10:58;;;;;;;28.02;10.65;;;6.00;99.90;;;;;;4925549;28;89117;-76
2023/12/08 08:13:24;;;;;;;29.17;10.50;;;6.00;99.90;;;;;;4924748;28;87889;-76
2023/12/08 08:15:49;;;;;;;41.53;11.70;;;6.00;99.90;;;;;;4925187;28;87724;-77
2023/12/08 08:18:15;;;;;;;33.10;11.70;;;6.00;99.90;;;;;;4922313;28;91673;-78
2023/12/08 08:20:41;;;;;;;31.08;10.80;;;6.10;99.90;;;;;;4925738;28;88598;-77
2023/12/08 08:23:07;;;;;;;27.92;10.52;;;6.10;99.90;;;;;;4907828;28;90294;-78
2023/12/08 08:25:33;;;;;;;36.08;12.65;;;6.10;99.90;;;;;;4924826;28;88986;-78
2023/12/08 08:28:00;;;;;;;31.38;10.27;;;6.10;99.90;;;;;;4924719;28;91979;-77
2023/12/08 08:30:26;;;;;;;36.58;12.02;;;6.20;99.90;;;;;;4926125;28;87876;-78
2023/12/08 08:32:52;;;;;;;31.38;11.75;;;6.20;99.90;;;;;;4925344;28;88416;-78
2023/12/08 08:35:18;;;;;;;35.70;11.05;;;6.20;99.90;;;;;;4922733;28;89620;-78
2023/12/08 08:37:44;;;;;;;30.50;11.70;;;6.20;99.90;;;;;;4923150;28;91917;-78
2023/12/08 08:40:10;;;;;;;33.70;11.40;;;6.20;99.90;;;;;;4922297;28;88438;-77
2023/12/08 08:42:39;;;;;;;33.45;11.98;;;6.20;99.90;;;;;;4926373;28;87641;-78
2023/12/08 08:45:07;;;;;;;39.08;11.45;;;6.20;99.90;;;;;;4923970;28;90360;-78
2023/12/08 08:47:33;;;;;;;32.35;10.38;;;6.30;99.90;;;;;;4924127;28;89366;-78
2023/12/08 08:49:59;;;;;;;34.85;10.60;;;6.30;99.90;;;;;;4924242;28;88527;-78
2023/12/08 08:52:25;;;;;;;33.08;11.02;;;6.40;99.90;;;;;;4920454;28;87606;-78
2023/12/08 08:54:50;;;;;;;31.42;10.73;;;6.40;99.90;;;;;;4923386;28;88213;-78
2023/12/08 08:57:16;;;;;;;35.00;11.40;;;6.40;99.90;;;;;;4925021;28;89712;-78
2023/12/08 08:59:42;;;;;;;33.38;9.70;;;6.50;99.90;;;;;;4924775;28;88480;-77
2023/12/08 09:02:07;;;;;;;33.45;10.55;;;6.50;99.90;;;;;;4925572;28;87701;-78
2023/12/08 09:04:33;;;;;;;37.55;11.45;;;6.60;99.90;;;;;;4917946;28;87805;-78
2023/12/08 09:06:59;;;;;;;33.67;11.30;;;6.60;99.90;;;;;;4917399;28;88707;-78
2023/12/08 09:09:24;;;;;;;29.90;11.05;;;6.60;99.90;;;;;;4920158;28;88235;-78
2023/12/08 09:11:50;;;;;;;25.40;10.65;;;6.70;99.90;;;;;;4918663;28;87492;-79
2023/12/08 09:14:16;;;;;;;35.75;11.38;;;6.70;99.90;;;;;;4917872;28;87231;-78
2023/12/08 09:16:42;;;;;;;33.22;10.85;;;6.70;99.90;;;;;;4921660;28;88690;-79
2023/12/08 09:19:08;;;;;;;33.83;11.02;;;6.80;99.90;;;;;;4908071;28;89517;-79
2023/12/08 09:21:33;;;;;;;39.05;10.73;;;6.80;99.90;;;;;;4902172;28;89241;-79
2023/12/08 09:23:59;;;;;;;33.22;10.68;;;6.90;99.90;;;;;;4916170;28;88370;-79
2023/12/08 09:26:25;;;;;;;30.92;11.02;;;6.90;99.90;;;;;;4927915;28;90544;-77
2023/12/08 09:28:51;;;;;;;34.88;10.75;;;6.90;99.90;;;;;;4924816;28;88743;-79
2023/12/08 09:31:16;;;;;;;33.97;10.73;;;6.90;99.90;;;;;;4923941;28;87792;-81
2023/12/08 09:33:42;;;;;;;27.52;11.32;;;7.00;99.90;;;;;;4927724;28;87832;-78
2023/12/08 09:36:08;;;;;;;33.67;10.80;;;7.00;99.90;;;;;;4924292;28;89255;-78
2023/12/08 09:38:34;;;;;;;29.73;12.35;;;7.00;99.90;;;;;;4926619;28;88306;-79
2023/12/08 09:41:04;;;;;;;29.42;10.40;;;7.10;99.90;;;;;;4924982;28;87720;-78
2023/12/08 09:43:37;;;;;;;32.45;10.52;;;7.10;99.90;;;;;;4926409;28;88075;-78
2023/12/08 09:46:03;;;;;;;;;;;7.20;99.90;;;;;;4924829;28;89659;-78
2023/12/08 09:48:30;;;;;;;32.70;11.07;;;7.20;99.90;;;;;;4925915;28;88823;-79
2023/12/08 09:50:57;;;;;;;38.55;10.00;;;7.20;99.90;;;;;;4923865;28;87431;-79
2023/12/08 09:53:25;;;;;;;39.83;10.90;;;7.30;99.90;;;;;;4923173;28;88814;-78
2023/12/08 09:55:53;;;;;;;32.08;10.32;;;7.30;99.90;;;;;;4913295;28;91751;-79
2023/12/08 09:58:21;;;;;;;33.63;10.55;;;7.40;99.90;;;;;;4924083;28;88193;-78
2023/12/08 10:00:49;;;;;;;29.35;10.52;;;7.40;99.90;;;;;;4923728;28;88570;-79
2023/12/08 10:03:17;;;;;;;32.20;11.82;;;7.40;99.90;;;;;;4908921;28;89387;-78
2023/12/08 10:05:43;;;;;;;33.92;11.02;;;7.40;99.90;;;;;;4925749;28;88725;-78
2023/12/08 10:08:09;;;;;;;34.83;13.23;;;7.50;99.90;;;;;;4925321;28;88019;-78
2023/12/08 10:10:37;;;;;;;35.60;12.30;;;7.60;99.90;;;;;;4905190;28;88539;-79
2023/12/08 10:13:03;;;;;;;32.45;11.02;;;7.60;99.90;;;;;;4925339;28;87304;-79
2023/12/08 10:15:28;;;;;;;38.75;12.07;;;7.60;99.90;;;;;;4921799;28;88206;-79
2023/12/08 10:17:54;;;;;;;31.08;11.10;;;7.70;99.90;;;;;;4924694;28;88075;-79
2023/12/08 10:20:20;;;;;;;36.85;10.60;;;7.70;99.90;;;;;;4927045;28;87714;-79
2023/12/08 10:22:50;;;;;;;28.35;10.98;;;7.70;99.90;;;;;;4924517;28;94398;-79
2023/12/08 10:25:21;;;;;;;37.58;11.07;;;7.80;99.90;;;;;;4923067;28;89130;-79
2023/12/08 10:27:49;;;;;;;36.95;11.68;;;7.80;99.90;;;;;;4924852;28;91970;-79
2023/12/08 10:30:15;;;;;;;32.08;10.85;;;7.80;99.90;;;;;;4914657;28;87634;-78
2023/12/08 10:32:42;;;;;;;31.02;10.25;;;7.90;99.90;;;;;;4925408;28;87959;-79
2023/12/08 10:35:10;;;;;;;30.77;12.02;;;7.90;99.90;;;;;;4907417;28;95897;-78
2023/12/08 10:37:36;;;;;;;38.15;11.02;;;7.90;99.90;;;;;;4923897;28;89209;-79
2023/12/08 10:40:01;;;;;;;31.00;10.27;;;8.00;99.90;;;;;;4925514;28;88044;-78
2023/12/08 10:42:27;;;;;;;31.40;9.68;;;8.00;99.90;;;;;;4923006;28;87593;-79
2023/12/08 10:44:53;;;;;;;26.55;9.95;;;8.00;99.90;;;;;;4927737;28;87612;-79
2023/12/08 10:47:20;;;;;;;27.05;9.25;;;8.10;99.90;;;;;;4926914;28;91832;-79
2023/12/08 10:49:48;;;;;;;33.70;9.75;;;8.10;99.90;;;;;;4927248;28;87904;-78
2023/12/08 10:52:15;;;;;;;28.88;10.43;;;8.20;99.90;;;;;;4924750;28;87867;-79
2023/12/08 10:54:41;;;;;;;27.13;9.90;;;8.20;99.90;;;;;;4925505;28;91900;-79
2023/12/08 10:57:07;;;;;;;26.80;9.95;;;8.30;99.90;;;;;;4927922;28;89432;-79
2023/12/08 10:59:37;;;;;;;29.48;10.50;;;8.30;99.90;;;;;;4930963;28;88592;-79
2023/12/08 11:02:08;;;;;;;33.78;9.60;;;8.40;99.90;;;;;;4925607;28;87984;-78
2023/12/08 11:04:37;;;;;;;31.20;9.57;;;8.50;99.90;;;;;;4927073;28;91392;-79
2023/12/08 11:07:17;;;;;;;38.67;11.45;;;8.50;99.90;;;;;;4927770;28;88034;-78
2023/12/08 11:09:42;;;;;;;27.45;9.40;;;8.60;99.90;;;;;;4918832;28;87737;-78
2023/12/08 11:12:13;;;;;;;32.22;10.65;;;8.60;99.90;;;;;;4928801;28;87679;-78
2023/12/08 11:14:42;;;;;;;30.33;9.05;;;8.70;99.90;;;;;;4927779;28;90530;-78
2023/12/08 11:17:16;;;;;;;27.90;9.27;;;8.70;99.90;;;;;;4930057;28;92167;-78
2023/12/08 11:19:42;;;;;;;20.45;9.10;;;8.70;99.90;;;;;;4926597;28;87548;-78
2023/12/08 11:22:09;;;;;;;41.40;9.70;;;8.70;99.90;;;;;;4928042;28;89467;-78
2023/12/08 11:24:36;;;;;;;27.27;9.98;;;8.80;99.90;;;;;;4930388;28;90495;-79
2023/12/08 11:27:10;;;;;;;27.73;8.55;;;8.80;99.90;;;;;;4928677;28;89258;-79
2023/12/08 11:29:57;;;;;;;32.03;9.27;;;8.90;99.90;;;;;;4928353;28;87770;-78
2023/12/08 11:32:40;;;;;;;27.58;8.02;;;8.80;99.90;;;;;;4928335;28;91101;-78
2023/12/08 11:35:09;;;;;;;23.00;7.57;;;8.90;99.90;;;;;;4928517;28;88700;-78
2023/12/08 11:37:35;;;;;;;30.95;8.57;;;8.90;99.90;;;;;;4928840;28;89078;-78
2023/12/08 11:40:10;;;;;;;32.25;9.15;;;8.90;99.90;;;;;;4929240;28;87933;-79
2023/12/08 11:42:37;;;;;;;26.55;7.22;;;8.90;99.90;;;;;;4928185;28;88353;-79
2023/12/08 11:45:07;;;;;;;18.45;6.65;;;9.00;99.90;;;;;;4926246;28;90710;-79
2023/12/08 11:47:34;;;;;;;23.52;6.75;;;9.00;99.90;;;;;;4928575;28;87802;-78
2023/12/08 11:50:03;;;;;;;33.95;7.10;;;9.00;99.90;;;;;;4927936;28;88631;-78
2023/12/08 11:52:29;;;;;;;24.73;6.82;;;9.00;99.90;;;;;;4927862;28;87377;-79
2023/12/08 11:55:00;;;;;;;25.33;6.22;;;9.00;99.90;;;;;;4925720;28;90942;-79
2023/12/08 11:57:27;;;;;;;20.70;6.43;;;9.00;99.90;;;;;;4925749;28;91669;-79
2023/12/08 11:59:54;;;;;;;22.02;6.43;;;9.00;99.90;;;;;;4928068;28;87731;-80
2023/12/08 12:02:20;;;;;;;23.60;5.95;;;9.00;99.90;;;;;;4925969;28;88738;-78
2023/12/08 12:04:46;;;;;;;24.23;6.05;;;9.00;99.90;;;;;;4928231;28;87972;-79
2023/12/08 12:07:13;;;;;;;18.35;5.85;;;9.00;99.90;;;;;;4928504;28;88384;-79
2023/12/08 12:09:41;;;;;;;18.75;6.10;;;9.00;99.90;;;;;;4927571;28;87551;-78
2023/12/08 12:12:14;;;;;;;19.90;5.30;;;9.10;99.90;;;;;;4920328;28;87588;-80
2023/12/08 12:14:43;;;;;;;22.40;5.75;;;9.10;99.90;;;;;;4928153;28;91350;-80
2023/12/08 12:17:13;;;;;;;28.58;6.65;;;9.10;99.90;;;;;;4924823;28;94757;-79
2023/12/08 12:19:39;;;;;;;23.23;6.13;;;9.10;99.90;;;;;;4926058;28;87549;-79
2023/12/08 12:22:05;;;;;;;21.75;6.50;;;9.10;99.90;;;;;;4929417;28;87551;-78
2023/12/08 12:24:31;;;;;;;21.83;5.78;;;9.10;99.90;;;;;;4929101;28;88960;-79
2023/12/08 12:26:57;;;;;;;23.42;6.63;;;9.00;99.90;;;;;;4926420;28;91666;-79
2023/12/08 12:29:23;;;;;;;24.90;5.78;;;9.10;99.90;;;;;;4925616;28;87883;-79
2023/12/08 12:31:49;;;;;;;18.42;5.78;;;9.10;99.90;;;;;;4927947;28;87128;-79
2023/12/08 12:34:21;;;;;;;23.33;6.57;;;9.10;99.90;;;;;;4926230;28;88503;-79
2023/12/08 12:36:47;;;;;;;13.63;5.32;;;9.00;99.90;;;;;;4928778;28;89230;-79
2023/12/08 12:39:12;;;;;;;24.25;6.35;;;9.00;99.90;;;;;;4924667;28;88427;-79
2023/12/08 12:41:38;;;;;;;23.45;6.13;;;9.00;99.90;;;;;;4928041;28;90413;-79